Time;durP1;ratioP1;P1;durP2;ratioP2;P2;SDS_P1;SDS_P2;PMS_P1;PMS_P2;Temp;Humidity;BMP_temperature;BMP_pressure;BME280_temperature;BME280_humidity;BME280_pressure;Samples;Min_cycle;Max_cycle;Signal;HPM_P1;HPM_P2
2021/12/26 00:00:48;;;;;;;;;;;;;;;;;;5094651;28;19924;-79
2021/12/26 00:03:20;;;;;;;;;;;;;;;;;;5092858;28;19931;-78
2021/12/26 00:05:47;;;;;;;;;;;;;;;;;;5090854;28;20385;-78
2021/12/26 00:08:19;;;;;;;;;;;;;;;;;;5094232;28;19935;-80
2021/12/26 00:10:48;;;;;;;;;;;;;;;;;;5091307;28;20007;-77
2021/12/26 00:13:15;;;;;;;;;;;;;;;;;;5092983;28;19939;-78
2021/12/26 00:15:45;;;;;;;;;;;;;;;;;;5093804;28;19924;-78
2021/12/26 00:18:15;;;;;;;;;;;;;;;;;;5093507;28;19924;-77
2021/12/26 00:20:42;;;;;;;;;;;;;;;;;;5089011;28;19963;-77
2021/12/26 00:23:09;;;;;;;;;;;;;;;;;;5093976;28;19932;-79
2021/12/26 00:25:38;;;;;;;;;;;;;;;;;;5090812;28;20427;-79
2021/12/26 00:28:05;;;;;;;;;;;;;;;;;;5092903;28;19974;-78
2021/12/26 00:30:32;;;;;;;;;;;;;;;;;;5089695;28;19924;-78
2021/12/26 00:32:59;;;;;;;;;;;;;;;;;;5092366;28;19924;-78
2021/12/26 00:35:26;;;;;;;;;;;;;;;;;;5093079;28;20396;-79
2021/12/26 00:37:55;;;;;;;;;;;;;;;;;;5092469;28;20465;-78
2021/12/26 00:40:23;;;;;;;;;;;;;;;;;;5092961;28;19928;-78
2021/12/26 00:42:50;;;;;;;;;;;;;;;;;;5093569;28;19940;-78
2021/12/26 00:45:18;;;;;;;;;;;;;;;;;;5093987;28;19973;-79
2021/12/26 00:47:45;;;;;;;;;;;;;;;;;;5092590;28;19931;-79
2021/12/26 00:50:12;;;;;;;;;;;;;;;;;;5093427;28;19924;-80
2021/12/26 00:52:39;;;;;;;;;;;;;;;;;;5091485;28;19936;-79
2021/12/26 00:55:06;;;;;;;;;;;;;;;;;;5091631;28;20466;-79
2021/12/26 00:57:36;;;;;;;;;;;;;;;;;;5094309;28;19928;-79
2021/12/26 01:02:44;;;;;;;;;;;;;;;;;;5091055;28;19935;-78
2021/12/26 01:05:15;;;;;;;;;;;;;;;;;;5106405;28;19932;-77
2021/12/26 01:07:54;;;;;;;;;;;;;;;;;;5115056;28;19912;-77
2021/12/26 01:10:27;;;;;;;;;;;;;;;;;;5116410;28;19924;-77
2021/12/26 01:12:54;;;;;;;;;;;;;;;;;;5110900;28;19928;-78
2021/12/26 01:15:22;;;;;;;;;;;;;;;;;;5096495;28;20270;-78
2021/12/26 01:17:55;;;;;;;;;;;;;;;;;;5090882;28;19928;-78
2021/12/26 01:20:36;;;;;;;;;;;;;;;;;;5086782;28;19954;-78
2021/12/26 01:23:03;;;;;;;;;;;;;;;;;;5084564;28;19943;-78
2021/12/26 01:25:30;;;;;;;;;;;;;;;;;;5090702;28;19924;-78
2021/12/26 01:27:57;;;;;;;;;;;;;;;;;;5092970;28;19924;-79
2021/12/26 01:30:26;;;;;;;;;;;;;;;;;;5088667;28;19932;-78
2021/12/26 01:32:53;;;;;;;;;;;;;;;;;;5093569;28;19949;-77
2021/12/26 01:35:27;;;;;;;;;;;;;;;;;;5092569;28;19930;-79
2021/12/26 01:37:54;;;;;;;;;;;;;;;;;;5092495;28;19924;-78
2021/12/26 01:40:21;;;;;;;;;;;;;;;;;;5092676;28;19936;-77
2021/12/26 01:42:50;;;;;;;;;;;;;;;;;;5087767;28;20003;-78
2021/12/26 01:45:19;;;;;;;;;;;;;;;;;;5092068;28;19928;-78
2021/12/26 01:47:46;;;;;;;;;;;;;;;;;;5091563;28;19932;-78
2021/12/26 01:50:14;;;;;;;;;;;;;;;;;;5092747;28;19946;-78
2021/12/26 01:52:41;;;;;;;;;;;;;;;;;;5089856;28;19924;-78
2021/12/26 01:57:49;;;;;;;;;;;;;;;;;;5091625;28;19927;-79
2021/12/26 02:00:16;;;;;;;;;;;;;;;;;;5087195;28;19924;-79
2021/12/26 02:02:44;;;;;;;;;;;;;;;;;;5092313;28;19924;-79
2021/12/26 02:05:12;;;;;;;;;;;;;;;;;;5102796;28;19912;-77
2021/12/26 02:07:40;;;;;;;;;;;;;;;;;;5108430;28;19935;-79
2021/12/26 02:10:10;;;;;;;;;;;;;;;;;;5091135;28;20373;-78
2021/12/26 02:12:37;;;;;;;;;;;;;;;;;;5090829;28;19970;-79
2021/12/26 02:15:04;;;;;;;;;;;;;;;;;;5095212;28;20564;-79
2021/12/26 02:17:33;;;;;;;;;;;;;;;;;;5095810;28;19924;-79
2021/12/26 02:20:04;;;;;;;;;;;;;;;;;;5092478;28;19931;-79
2021/12/26 02:22:37;;;;;;;;;;;;;;;;;;5091380;28;19977;-79
2021/12/26 02:25:24;;;;;;;;;;;;;;;;;;5094448;28;19971;-79
2021/12/26 02:27:52;;;;;;;;;;;;;;;;;;5095480;28;19931;-79
2021/12/26 02:30:20;;;;;;;;;;;;;;;;;;5092875;28;19928;-77
2021/12/26 02:32:49;;;;;;;;;;;;;;;;;;5092498;28;19928;-77
2021/12/26 02:35:16;;;;;;;;;;;;;;;;;;5093414;28;19924;-78
2021/12/26 02:37:43;;;;;;;;;;;;;;;;;;5094850;28;19928;-77
2021/12/26 02:40:10;;;;;;;;;;;;;;;;;;5092730;28;19970;-77
2021/12/26 02:42:40;;;;;;;;;;;;;;;;;;5095109;28;19925;-79
2021/12/26 02:45:07;;;;;;;;;;;;;;;;;;5094218;28;19924;-78
2021/12/26 02:47:35;;;;;;;;;;;;;;;;;;5091588;28;19958;-78
2021/12/26 02:50:02;;;;;;;;;;;;;;;;;;5095337;28;19928;-78
2021/12/26 02:52:29;;;;;;;;;;;;;;;;;;5092567;28;20387;-77
2021/12/26 02:54:56;;;;;;;;;;;;;;;;;;5089036;28;20011;-77
2021/12/26 02:57:24;;;;;;;;;;;;;;;;;;5095410;28;19931;-79
2021/12/26 02:59:51;;;;;;;;;;;;;;;;;;5095228;28;19967;-78
2021/12/26 03:02:18;;;;;;;;;;;;;;;;;;5087600;28;20011;-79
2021/12/26 03:04:48;;;;;;;;;;;;;;;;;;5089634;28;19928;-78
2021/12/26 03:07:18;;;;;;;;;;;;;;;;;;5094987;28;19931;-79
2021/12/26 03:09:59;;;;;;;;;;;;;;;;;;5093772;28;19934;-79
2021/12/26 03:12:26;;;;;;;;;;;;;;;;;;5087565;28;19997;-79
2021/12/26 03:14:56;;;;;;;;;;;;;;;;;;5092482;28;19924;-79
2021/12/26 03:17:25;;;;;;;;;;;;;;;;;;5090789;28;19928;-79
2021/12/26 03:19:55;;;;;;;;;;;;;;;;;;5093769;28;19931;-79
2021/12/26 03:22:22;;;;;;;;;;;;;;;;;;5085549;28;19963;-79
2021/12/26 03:24:49;;;;;;;;;;;;;;;;;;5092922;28;19930;-79
2021/12/26 03:27:16;;;;;;;;;;;;;;;;;;5093048;28;20010;-79
2021/12/26 03:29:43;;;;;;;;;;;;;;;;;;5093699;28;20377;-79
2021/12/26 03:32:11;;;;;;;;;;;;;;;;;;5093801;28;19924;-78
2021/12/26 03:34:38;;;;;;;;;;;;;;;;;;5092879;28;19997;-78
2021/12/26 03:37:05;;;;;;;;;;;;;;;;;;5093197;28;20515;-78
2021/12/26 03:39:33;;;;;;;;;;;;;;;;;;5095941;28;19931;-78
2021/12/26 03:42:00;;;;;;;;;;;;;;;;;;5090525;28;20163;-78
2021/12/26 03:44:29;;;;;;;;;;;;;;;;;;5094085;28;19950;-78
2021/12/26 03:46:57;;;;;;;;;;;;;;;;;;5090451;28;19954;-78
2021/12/26 03:49:28;;;;;;;;;;;;;;;;;;5092160;28;20001;-79
2021/12/26 03:51:58;;;;;;;;;;;;;;;;;;5087577;28;20022;-79
2021/12/26 03:54:25;;;;;;;;;;;;;;;;;;5093456;28;19990;-79
2021/12/26 03:56:55;;;;;;;;;;;;;;;;;;5092204;28;19928;-78
2021/12/26 03:59:22;;;;;;;;;;;;;;;;;;5090964;28;19931;-78
2021/12/26 04:01:56;;;;;;;;;;;;;;;;;;5092143;28;20653;-78
2021/12/26 04:04:33;;;;;;;;;;;;;;;;;;5093721;28;20052;-78
2021/12/26 04:07:00;;;;;;;;;;;;;;;;;;5084058;28;20301;-80
2021/12/26 04:09:27;;;;;;;;;;;;;;;;;;5090387;28;19924;-79
2021/12/26 04:11:54;;;;;;;;;;;;;;;;;;5085087;28;20002;-79
2021/12/26 04:14:23;;;;;;;;;;;;;;;;;;5094873;28;20428;-80
2021/12/26 04:16:50;;;;;;;;;;;;;;;;;;5092545;28;20405;-77
2021/12/26 04:19:17;;;;;;;;;;;;;;;;;;5092851;28;19925;-79
2021/12/26 04:21:44;;;;;;;;;;;;;;;;;;5086319;28;20011;-79
2021/12/26 04:24:21;;;;;;;;;;;;;;;;;;5091990;28;20406;-79
2021/12/26 04:26:49;;;;;;;;;;;;;;;;;;5092544;28;20263;-77
2021/12/26 04:29:29;;;;;;;;;;;;;;;;;;5091909;28;20369;-79
2021/12/26 04:31:56;;;;;;;;;;;;;;;;;;5081930;28;19924;-80
2021/12/26 04:34:24;;;;;;;;;;;;;;;;;;5089634;28;19935;-78
2021/12/26 04:36:54;;;;;;;;;;;;;;;;;;5087015;28;19924;-80
2021/12/26 04:39:22;;;;;;;;;;;;;;;;;;5091989;28;20111;-79
2021/12/26 04:41:52;;;;;;;;;;;;;;;;;;5092428;28;20317;-80
2021/12/26 04:44:23;;;;;;;;;;;;;;;;;;5090315;28;19931;-79
2021/12/26 04:46:50;;;;;;;;;;;;;;;;;;5098781;28;19995;-77
2021/12/26 04:49:17;;;;;;;;;;;;;;;;;;5110710;28;20111;-78
2021/12/26 04:51:45;;;;;;;;;;;;;;;;;;5095526;28;19987;-79
2021/12/26 04:54:12;;;;;;;;;;;;;;;;;;5091151;28;20002;-78
2021/12/26 04:56:43;;;;;;;;;;;;;;;;;;5092140;28;22462;-78
2021/12/26 04:59:12;;;;;;;;;;;;;;;;;;5091814;28;19964;-77
2021/12/26 05:01:39;;;;;;;;;;;;;;;;;;5095417;28;19928;-78
2021/12/26 05:04:06;;;;;;;;;;;;;;;;;;5093979;28;19939;-77
2021/12/26 05:06:36;;;;;;;;;;;;;;;;;;5095491;28;19925;-78
2021/12/26 05:09:03;;;;;;;;;;;;;;;;;;5094460;28;19925;-77
2021/12/26 05:11:32;;;;;;;;;;;;;;;;;;5092963;28;20201;-79
2021/12/26 05:14:01;;;;;;;;;;;;;;;;;;5091938;28;20010;-79
2021/12/26 05:16:28;;;;;;;;;;;;;;;;;;5091015;28;19924;-79
2021/12/26 05:18:55;;;;;;;;;;;;;;;;;;5095981;22;19909;-70
2021/12/26 05:21:22;;;;;;;;;;;;;;;;;;5048239;28;20283;-70
2021/12/26 05:23:49;;;;;;;;;;;;;;;;;;5046070;28;19933;-69
2021/12/26 05:26:16;;;;;;;;;;;;;;;;;;5047438;28;19932;-70
2021/12/26 05:28:43;;;;;;;;;;;;;;;;;;5049273;28;20408;-69
2021/12/26 05:31:10;;;;;;;;;;;;;;;;;;5064958;28;19924;-69
2021/12/26 05:33:37;;;;;;;;;;;;;;;;;;5064332;28;19935;-69
2021/12/26 05:36:04;;;;;;;;;;;;;;;;;;5067803;28;19924;-69
2021/12/26 05:38:31;;;;;;;;;;;;;;;;;;5064065;28;19932;-69
2021/12/26 05:40:58;;;;;;;;;;;;;;;;;;5069025;28;19931;-69
2021/12/26 05:43:25;;;;;;;;;;;;;;;;;;5059072;28;19931;-69
2021/12/26 05:45:52;;;;;;;;;;;;;;;;;;5068693;28;20031;-70
2021/12/26 05:48:19;;;;;;;;;;;;;;;;;;5064907;28;19932;-69
2021/12/26 05:50:46;;;;;;;;;;;;;;;;;;5067766;28;19924;-70
2021/12/26 05:53:13;;;;;;;;;;;;;;;;;;5064335;28;19939;-69
2021/12/26 05:55:40;;;;;;;;;;;;;;;;;;5072449;28;19931;-70
2021/12/26 05:58:07;;;;;;;;;;;;;;;;;;5069596;28;19924;-71
2021/12/26 06:00:33;;;;;;;;;;;;;;;;;;5071954;28;19929;-69
2021/12/26 06:03:00;;;;;;;;;;;;;;;;;;5072349;28;19928;-70
2021/12/26 06:05:27;;;;;;;;;;;;;;;;;;5071664;28;19925;-70
2021/12/26 06:07:54;;;;;;;;;;;;;;;;;;5073103;28;20000;-70
2021/12/26 06:10:21;;;;;;;;;;;;;;;;;;5070186;28;19924;-70
2021/12/26 06:12:48;;;;;;;;;;;;;;;;;;5069283;28;19924;-70
2021/12/26 06:15:15;;;;;;;;;;;;;;;;;;5065220;28;19928;-70
2021/12/26 06:17:42;;;;;;;;;;;;;;;;;;5070505;28;20324;-70
2021/12/26 06:20:14;;;;;;;;;;;;;;;;;;5068910;28;20649;-70
2021/12/26 06:22:41;;;;;;;;;;;;;;;;;;5071525;28;20407;-69
2021/12/26 06:25:07;;;;;;;;;;;;;;;;;;5069721;28;19931;-70
2021/12/26 06:27:36;;;;;;;;;;;;;;;;;;5072576;28;19924;-70
2021/12/26 06:30:03;;;;;;;;;;;;;;;;;;5069730;28;19932;-70
2021/12/26 06:32:30;;;;;;;;;;;;;;;;;;5073468;28;19924;-70
2021/12/26 06:34:57;;;;;;;;;;;;;;;;;;5071523;28;19924;-70
2021/12/26 06:37:24;;;;;;;;;;;;;;;;;;5073312;28;19947;-71
2021/12/26 06:39:51;;;;;;;;;;;;;;;;;;5069277;28;19940;-70
2021/12/26 06:42:18;;;;;;;;;;;;;;;;;;5071720;28;19925;-71
2021/12/26 06:44:45;;;;;;;;;;;;;;;;;;5070747;28;19924;-70
2021/12/26 06:47:12;;;;;;;;;;;;;;;;;;5065652;28;19947;-71
2021/12/26 06:49:39;;;;;;;;;;;;;;;;;;5068391;28;19924;-70
2021/12/26 06:52:06;;;;;;;;;;;;;;;;;;5072439;28;19925;-69
2021/12/26 06:54:33;;;;;;;;;;;;;;;;;;5065366;28;19928;-69
2021/12/26 06:57:00;;;;;;;;;;;;;;;;;;5066378;28;19924;-71
2021/12/26 06:59:27;;;;;;;;;;;;;;;;;;5066598;28;19929;-71
2021/12/26 07:01:54;;;;;;;;;;;;;;;;;;5069054;28;19931;-71
2021/12/26 07:04:21;;;;;;;;;;;;;;;;;;5072535;28;20370;-75
2021/12/26 07:06:48;;;;;;;;;;;;;;;;;;5066555;28;19924;-75
2021/12/26 07:09:15;;;;;;;;;;;;;;;;;;5070836;28;19931;-75
2021/12/26 07:11:42;;;;;;;;;;;;;;;;;;5070455;28;19924;-76
2021/12/26 07:14:09;;;;;;;;;;;;;;;;;;5071722;28;20416;-76
2021/12/26 07:16:36;;;;;;;;;;;;;;;;;;5068033;28;19924;-76
2021/12/26 07:19:03;;;;;;;;;;;;;;;;;;5072275;28;19925;-77
2021/12/26 07:21:30;;;;;;;;;;;;;;;;;;5068158;28;19964;-76
2021/12/26 07:23:56;;;;;;;;;;;;;;;;;;5072565;28;19925;-76
2021/12/26 07:26:24;;;;;;;;;;;;;;;;;;5072820;28;19925;-76
2021/12/26 07:28:51;;;;;;;;;;;;;;;;;;5071923;28;19925;-76
2021/12/26 07:31:18;;;;;;;;;;;;;;;;;;5071991;28;19924;-76
2021/12/26 07:33:45;;;;;;;;;;;;;;;;;;5072468;28;19931;-76
2021/12/26 07:36:12;;;;;;;;;;;;;;;;;;5072697;28;19924;-75
2021/12/26 07:38:39;;;;;;;;;;;;;;;;;;5072552;28;19925;-77
2021/12/26 07:41:06;;;;;;;;;;;;;;;;;;5071387;28;19967;-73
2021/12/26 07:43:33;;;;;;;;;;;;;;;;;;5071749;28;19934;-76
2021/12/26 07:46:00;;;;;;;;;;;;;;;;;;5070053;28;20543;-78
2021/12/26 07:48:27;;;;;;;;;;;;;;;;;;5071315;28;19983;-78
2021/12/26 07:50:54;;;;;;;;;;;;;;;;;;5069712;28;19935;-78
2021/12/26 07:53:21;;;;;;;;;;;;;;;;;;5072021;28;20560;-79
2021/12/26 07:55:48;;;;;;;;;;;;;;;;;;5073138;28;20015;-78
2021/12/26 07:58:16;;;;;;;;;;;;;;;;;;5062876;28;19925;-76
2021/12/26 08:00:43;;;;;;;;;;;;;;;;;;5069186;28;20015;-77
2021/12/26 08:03:10;;;;;;;;;;;;;;;;;;5070996;28;19956;-77
2021/12/26 08:05:37;;;;;;;;;;;;;;;;;;5072337;28;19928;-78
2021/12/26 08:08:04;;;;;;;;;;;;;;;;;;5069967;28;20279;-78
2021/12/26 08:10:31;;;;;;;;;;;;;;;;;;5061158;28;19925;-77
2021/12/26 08:12:58;;;;;;;;;;;;;;;;;;5071553;28;19924;-79
2021/12/26 08:15:25;;;;;;;;;;;;;;;;;;5072271;28;19931;-76
2021/12/26 08:17:52;;;;;;;;;;;;;;;;;;5072206;28;19931;-77
2021/12/26 08:20:19;;;;;;;;;;;;;;;;;;5073247;28;20362;-78
2021/12/26 08:22:46;;;;;;;;;;;;;;;;;;5072351;28;19924;-79
2021/12/26 08:25:13;;;;;;;;;;;;;;;;;;5073714;28;19929;-80
2021/12/26 08:27:40;;;;;;;;;;;;;;;;;;5071994;28;19925;-79
2021/12/26 08:30:07;;;;;;;;;;;;;;;;;;5072907;28;19925;-78
2021/12/26 08:32:37;;;;;;;;;;;;;;;;;;5072552;28;19925;-78
2021/12/26 08:35:06;;;;;;;;;;;;;;;;;;5073217;28;19924;-78
2021/12/26 08:37:33;;;;;;;;;;;;;;;;;;5073163;28;20405;-78
2021/12/26 08:40:00;;;;;;;;;;;;;;;;;;5072569;28;19929;-78
2021/12/26 08:42:27;;;;;;;;;;;;;;;;;;5071430;28;19925;-77
2021/12/26 08:44:56;;;;;;;;;;;;;;;;;;5071542;28;19931;-78
2021/12/26 08:47:23;;;;;;;;;;;;;;;;;;5071907;28;19928;-78
2021/12/26 08:49:50;;;;;;;;;;;;;;;;;;5072031;28;19925;-76
2021/12/26 08:52:18;;;;;;;;;;;;;;;;;;5071810;28;19925;-77
2021/12/26 08:54:45;;;;;;;;;;;;;;;;;;5071897;28;19971;-78
2021/12/26 08:57:12;;;;;;;;;;;;;;;;;;5071989;28;20017;-77
2021/12/26 08:59:40;;;;;;;;;;;;;;;;;;5071380;28;19931;-78
2021/12/26 09:02:08;;;;;;;;;;;;;;;;;;5071479;28;20290;-78
2021/12/26 09:04:35;;;;;;;;;;;;;;;;;;5071976;28;19925;-77
2021/12/26 09:07:02;;;;;;;;;;;;;;;;;;5071181;28;19931;-77
2021/12/26 09:09:29;;;;;;;;;;;;;;;;;;5071343;28;19931;-78
2021/12/26 09:11:56;;;;;;;;;;;;;;;;;;5071415;28;19931;-78
2021/12/26 09:14:23;;;;;;;;;;;;;;;;;;5074651;28;19930;-78
2021/12/26 09:16:49;;;;;;;;;;;;;;;;;;5073483;28;20286;-78
2021/12/26 09:19:16;;;;;;;;;;;;;;;;;;5075970;28;19924;-77
2021/12/26 09:21:43;;;;;;;;;;;;;;;;;;5074708;28;19925;-77
2021/12/26 09:24:10;;;;;;;;;;;;;;;;;;5077456;28;19931;-80
2021/12/26 09:26:37;;;;;;;;;;;;;;;;;;5076072;28;19924;-79
2021/12/26 09:29:04;;;;;;;;;;;;;;;;;;5080680;28;19924;-79
2021/12/26 09:31:31;;;;;;;;;;;;;;;;;;5080550;28;19931;-77
2021/12/26 09:33:58;;;;;;;;;;;;;;;;;;5078053;28;20302;-77
2021/12/26 09:36:25;;;;;;;;;;;;;;;;;;5078494;28;19924;-77
2021/12/26 09:38:52;;;;;;;;;;;;;;;;;;5078420;28;19928;-77
2021/12/26 09:41:19;;;;;;;;;;;;;;;;;;5076830;28;19924;-77
2021/12/26 09:43:46;;;;;;;;;;;;;;;;;;5078064;28;20204;-77
2021/12/26 09:46:13;;;;;;;;;;;;;;;;;;5076897;28;20329;-77
2021/12/26 09:48:40;;;;;;;;;;;;;;;;;;5076702;28;19947;-78
2021/12/26 09:51:07;;;;;;;;;;;;;;;;;;5075372;28;20011;-77
2021/12/26 09:53:37;;;;;;;;;;;;;;;;;;5077082;28;19998;-79
2021/12/26 09:56:04;;;;;;;;;;;;;;;;;;5076142;28;19977;-78
2021/12/26 09:58:31;;;;;;;;;;;;;;;;;;5081451;28;19924;-77
2021/12/26 10:00:58;;;;;;;;;;;;;;;;;;5079972;28;19963;-78
2021/12/26 10:03:28;;;;;;;;;;;;;;;;;;5078621;28;20397;-77
2021/12/26 10:05:55;;;;;;;;;;;;;;;;;;5078360;28;19935;-78
2021/12/26 10:08:22;;;;;;;;;;;;;;;;;;5080479;28;19924;-79
2021/12/26 10:10:49;;;;;;;;;;;;;;;;;;5083547;28;20350;-75
2021/12/26 10:13:16;;;;;;;;;;;;;;;;;;5078989;28;19960;-79
2021/12/26 10:15:42;;;;;;;;;;;;;;;;;;5079549;28;19925;-77
2021/12/26 10:18:09;;;;;;;;;;;;;;;;;;5075748;28;19924;-76
2021/12/26 10:20:36;;;;;;;;;;;;;;;;;;5076702;28;20385;-77
2021/12/26 10:23:03;;;;;;;;;;;;;;;;;;5063186;28;20295;-77
2021/12/26 10:25:30;;;;;;;;;;;;;;;;;;5075431;28;19925;-76
2021/12/26 10:27:57;;;;;;;;;;;;;;;;;;5074639;28;19951;-75
2021/12/26 10:30:24;;;;;;;;;;;;;;;;;;5074700;28;19924;-77
2021/12/26 10:32:52;;;;;;;;;;;;;;;;;;5075672;28;20293;-77
2021/12/26 10:35:19;;;;;;;;;;;;;;;;;;5073570;28;19924;-77
2021/12/26 10:37:46;;;;;;;;;;;;;;;;;;5073097;28;19924;-79
2021/12/26 10:40:14;;;;;;;;;;;;;;;;;;5074144;28;19925;-77
2021/12/26 10:42:41;;;;;;;;;;;;;;;;;;5074600;28;20386;-77
2021/12/26 10:45:08;;;;;;;;;;;;;;;;;;5074058;28;19947;-78
2021/12/26 10:47:34;;;;;;;;;;;;;;;;;;5074601;28;19924;-78
2021/12/26 10:50:02;;;;;;;;;;;;;;;;;;5073562;28;19925;-78
2021/12/26 10:52:29;;;;;;;;;;;;;;;;;;5074349;28;19931;-77
2021/12/26 10:54:56;;;;;;;;;;;;;;;;;;5074888;28;20392;-78
2021/12/26 10:57:23;;;;;;;;;;;;;;;;;;5074368;28;20274;-79
2021/12/26 10:59:50;;;;;;;;;;;;;;;;;;5069357;28;19924;-77
2021/12/26 11:02:17;;;;;;;;;;;;;;;;;;5073700;28;19925;-76
2021/12/26 11:04:44;;;;;;;;;;;;;;;;;;5074220;28;20314;-77
2021/12/26 11:07:11;;;;;;;;;;;;;;;;;;5074032;28;19924;-78
2021/12/26 11:09:38;;;;;;;;;;;;;;;;;;5073856;28;19940;-80
2021/12/26 11:12:04;;;;;;;;;;;;;;;;;;5073498;28;19929;-77
2021/12/26 11:14:31;;;;;;;;;;;;;;;;;;5073447;28;19924;-78
2021/12/26 11:16:58;;;;;;;;;;;;;;;;;;5073681;28;19930;-76
2021/12/26 11:19:27;;;;;;;;;;;;;;;;;;5083951;22;21433;-72
2021/12/26 11:21:54;;;;;;;;;;;;;;;;;;5052212;28;19929;-73
2021/12/26 11:24:21;;;;;;;;;;;;;;;;;;5053104;28;19932;-72
2021/12/26 11:26:48;;;;;;;;;;;;;;;;;;5053212;28;19925;-72
2021/12/26 11:29:15;;;;;;;;;;;;;;;;;;5055647;28;19925;-73
2021/12/26 11:31:43;;;;;;;;;;;10.00;99.90;;;;;;5072311;28;19932;-73
2021/12/26 11:34:10;;;;;;;;;;;;;;;;;;5073044;28;19928;-70
2021/12/26 11:36:37;;;;;;;;;;;8.00;99.90;;;;;;5072941;28;20029;-72
2021/12/26 11:39:06;;;;;;;;;;;;;;;;;;5072728;28;19971;-72
2021/12/26 11:41:35;;;;;;;;;;;;;;;;;;5072464;28;19924;-72
2021/12/26 11:44:02;;;;;;;;;;;;;;;;;;5072657;28;19930;-72
2021/12/26 11:46:28;;;;;;;;;;;;;;;;;;5072819;28;19935;-74
2021/12/26 11:48:58;;;;;;;;;;;;;;;;;;5072622;28;19924;-74
2021/12/26 11:51:25;;;;;;;;;;;;;;;;;;5072222;28;20019;-72
2021/12/26 11:53:52;;;;;;;;;;;;;;;;;;5068062;28;19928;-72
2021/12/26 11:56:19;;;;;;;;;;;;;;;;;;5068312;28;19925;-72
2021/12/26 11:58:46;;;;;;;;;;;;;;;;;;5072269;28;20385;-73
2021/12/26 12:01:13;;;;;;;;;;;;;;;;;;5072172;28;19924;-72
2021/12/26 12:03:40;;;;;;;;;;;;;;;;;;5072613;28;20306;-72
2021/12/26 12:06:07;;;;;;;;;;;;;;;;;;5072417;28;19924;-73
2021/12/26 12:08:34;;;;;;;;;;;;;;;;;;5072457;28;19931;-73
2021/12/26 12:11:02;;;;;;;;;;;;;;;;;;5071594;28;19930;-73
2021/12/26 12:13:29;;;;;;;;;;;;;;;;;;5071996;28;19924;-73
2021/12/26 12:15:56;;;;;;;;;;;;;;;;;;5071948;28;19924;-72
2021/12/26 12:18:22;;;;;;;;;;;;;;;;;;5071992;28;20378;-72
2021/12/26 12:20:49;;;;;;;;;;;;;;;;;;5071343;28;19924;-73
2021/12/26 12:23:16;;;;;;;;;;;;;;;;;;5072116;28;19929;-73
2021/12/26 12:25:49;;;;;;;;;;;;;;;;;;5071536;28;20015;-73
2021/12/26 12:28:16;;;;;;;;;;;;;;;;;;5071785;28;20451;-73
2021/12/26 12:30:42;;;;;;;;;;;;;;;;;;5071356;28;20314;-72
2021/12/26 12:33:09;;;;;;;;;;;;;;;;;;5071802;28;20275;-74
2021/12/26 12:35:36;;;;;;;;;;;;;;;;;;5071957;28;20306;-74
2021/12/26 12:38:03;;;;;;;;;;;;;;;;;;5071596;28;19931;-73
2021/12/26 12:40:32;;;;;;;;;;;;;;;;;;5071079;28;19925;-73
2021/12/26 12:42:59;;;;;;;;;;;;;;;;;;5071828;28;20414;-73
2021/12/26 12:45:27;;;;;;;;;;;;;;;;;;5071822;28;19929;-73
2021/12/26 12:47:53;;;;;;;;;;;;;;;;;;5071659;28;19925;-72
2021/12/26 12:50:20;;;;;;;;;;;;;;;;;;5071128;28;19924;-73
2021/12/26 12:52:47;;;;;;;;;;;;;;;;;;5071629;28;19924;-72
2021/12/26 12:55:14;;;;;;;;;;;;;;;;;;5071661;28;19929;-72
2021/12/26 12:57:42;;;;;;;;;;;;;;;;;;5071273;28;19935;-73
2021/12/26 13:00:09;;;;;;;;;;;;;;;;;;5071047;28;20274;-73
2021/12/26 13:02:37;;;;;;;;;;;;;;;;;;5071608;28;19935;-73
2021/12/26 13:05:04;;;;;;;;;;;;;;;;;;5071360;28;20219;-72
2021/12/26 13:07:31;;;;;;;;;;;;;;;;;;5070959;28;19924;-72
2021/12/26 13:09:58;;;;;;;;;;;;;;;;;;5066652;28;19931;-73
2021/12/26 13:12:25;;;;;;;;;;;;;;;;;;5071463;28;19924;-73
2021/12/26 13:14:52;;;;;;;;;;;;;;;;;;5071619;28;19924;-73
2021/12/26 13:17:19;;;;;;;;;;;;;;;;;;5071174;28;19994;-73
2021/12/26 13:19:47;;;;;;;;;;;;;;;;;;5071123;28;19928;-74
2021/12/26 13:22:14;;;;;;;;;;;;;;;;;;5070926;28;19979;-73
2021/12/26 13:24:41;;;;;;;;;;;;;;;;;;5071540;28;19924;-74
2021/12/26 13:27:08;;;;;;;;;;;;;;;;;;5071234;28;20007;-73
2021/12/26 13:29:35;;;;;;;;;;;;;;;;;;5071190;28;19968;-74
2021/12/26 13:32:01;;;;;;;;;;;;;;;;;;5070907;28;19924;-73
2021/12/26 13:34:28;;;;;;;;;;;;;;;;;;5070995;28;19925;-73
2021/12/26 13:36:55;;;;;;;;;;;;;;;;;;5071426;28;19928;-73
2021/12/26 13:39:22;;;;;;;;;;;;;;;;;;5070881;28;19928;-73
2021/12/26 13:41:49;;;;;;;;;;;;;;;;;;5070909;28;19925;-74
2021/12/26 13:44:16;;;;;;;;;;;;;;;;;;5071128;28;19934;-73
2021/12/26 13:46:43;;;;;;;;;;;;;;;;;;5071094;28;19932;-73
2021/12/26 13:49:12;;;;;;;;;;;;;;;;;;5070711;28;19930;-72
2021/12/26 13:51:40;;;;;;;;;;;;;;;;;;5070967;28;19975;-73
2021/12/26 13:54:07;;;;;;;;;;;;;;;;;;5071046;28;19928;-72
2021/12/26 13:56:34;;;;;;;;;;;;;;;;;;5070734;28;20023;-73
2021/12/26 13:59:01;;;;;;;;;;;;;;;;;;5070905;28;19925;-73
2021/12/26 14:01:28;;;;;;;;;;;;;;;;;;5070381;28;19932;-72
2021/12/26 14:03:55;;;;;;;;;;;;;;;;;;5070938;28;20310;-73
2021/12/26 14:06:22;;;;;;;;;;;;;;;;;;5070986;28;19925;-73
2021/12/26 14:08:49;;;;;;;;;;;;;;;;;;5071230;28;19924;-74
2021/12/26 14:11:16;;;;;;;;;;;;;;;;;;5074093;28;19935;-73
2021/12/26 14:13:43;;;;;;;;;;;;;;;;;;5074244;28;19924;-74
2021/12/26 14:16:10;;;;;;;;;;;;;;;;;;5074896;28;19931;-74
2021/12/26 14:18:38;;;;;;;;;;;;;;;;;;5074482;28;19925;-73
2021/12/26 14:21:06;;;;;;;;;;;;;;;;;;5074162;28;19924;-75
2021/12/26 14:23:39;;;;;;;;;;;;;;;;;;5074003;28;20178;-75
2021/12/26 14:26:06;;;;;;;;;;;;;;;;;;5068992;28;19928;-74
2021/12/26 14:28:33;;;;;;;;;;;;;;;;;;5074206;28;19924;-74
2021/12/26 14:31:00;;;;;;;;;;;;;;;;;;5073732;28;19928;-75
2021/12/26 14:33:31;;;;;;;;;;;;;;;;;;5074459;28;20038;-75
2021/12/26 14:35:58;;;;;;;;;;;;;;;;;;5074093;28;19924;-76
2021/12/26 14:38:25;;;;;;;;;;;;;;;;;;5074246;28;19924;-75
2021/12/26 14:40:52;;;;;;;;;;;;;;;;;;5073461;28;19925;-75
2021/12/26 14:43:19;;;;;;;;;;;;;;;;;;5073909;28;19924;-75
2021/12/26 14:45:46;;;;;;;;;;;;;;;;;;5073937;28;19931;-75
2021/12/26 14:48:13;;;;;;;;;;;;;;;;;;5073983;28;19925;-72
2021/12/26 14:50:40;;;;;;;;;;;;;;;;;;5073171;28;19925;-74
2021/12/26 14:53:06;;;;;;;;;;;;;;;;;;5073822;28;20556;-74
2021/12/26 14:55:36;;;;;;;;;;;;;;;;;;5073730;28;20395;-75
2021/12/26 14:58:03;;;;;;;;;;;;;;;;;;5073414;28;19931;-74
2021/12/26 15:00:30;;;;;;;;;;;;;;;;;;5073230;28;19932;-74
2021/12/26 15:02:57;;;;;;;;;;;;;;;;;;5074035;28;19935;-77
2021/12/26 15:05:25;;;;;;;;;;;;;;;;;;5073867;28;19947;-79
2021/12/26 15:07:52;;;;;;;;;;;;;;;;;;5073524;28;19925;-74
2021/12/26 15:10:19;;;;;;;;;;;;;;;;;;5072980;28;19924;-75
2021/12/26 15:12:46;;;;;;;;;;;;;;;;;;5073629;28;20437;-76
2021/12/26 15:15:13;;;;;;;;;;;;;;;;;;5073306;28;19951;-76
2021/12/26 15:17:40;;;;;;;;;;;;;;;;;;5073850;28;19930;-77
2021/12/26 15:20:07;;;;;;;;;;;;;;;;;;5072870;28;19925;-77
2021/12/26 15:22:34;;;;;;;;;;;;;;;;;;5072792;28;19924;-74
2021/12/26 15:25:01;;;;;;;;;;;;;;;;;;5073519;28;19936;-75
2021/12/26 15:27:28;;;;;;;;;;;;;;;;;;5073411;28;19936;-74
2021/12/26 15:29:55;;;;;;;;;;;;;;;;;;5072889;28;19924;-75
2021/12/26 15:32:22;;;;;;;;;;;;;;;;;;5073181;28;20413;-76
2021/12/26 15:34:49;;;;;;;;;;;;;;;;;;5073354;28;19930;-75
2021/12/26 15:37:16;;;;;;;;;;;;;;;;;;5075818;28;19928;-74
2021/12/26 15:39:43;;;;;;;;;;;;;;;;;;5066061;28;20023;-75
2021/12/26 15:42:10;;;;;;;;;;;;;;;;;;5072559;28;19924;-75
2021/12/26 15:44:37;;;;;;;;;;;;;;;;;;5073134;28;19924;-75
2021/12/26 15:47:04;;;;;;;;;;;;;;;;;;5072629;28;19924;-75
2021/12/26 15:49:31;;;;;;;;;;;;;;;;;;5061504;28;19924;-73
2021/12/26 15:51:59;;;;;;;;;;;;;;;;;;5072462;28;20416;-74
2021/12/26 15:54:26;;;;;;;;;;;;;;;;;;5072701;28;20024;-76
2021/12/26 15:56:53;;;;;;;;;;;;;;;;;;5072648;28;20374;-75
2021/12/26 15:59:20;;;;;;;;;;;;;;;;;;5061154;28;19924;-76
2021/12/26 16:01:47;;;;;;;;;;;;;;;;;;5072097;28;19932;-74
2021/12/26 16:04:14;;;;;;;;;;;;;;;;;;5072308;28;19947;-75
2021/12/26 16:06:41;;;;;;;;;;;;;;;;;;5072278;28;19925;-75
2021/12/26 16:09:08;;;;;;;;;;;;;;;;;;5072123;28;19925;-74
2021/12/26 16:11:35;;;;;;;;;;;;;;;;;;5072204;28;19963;-74
2021/12/26 16:14:02;;;;;;;;;;;;;;;;;;5072379;28;19932;-74
2021/12/26 16:16:29;;;;;;;;;;;;;;;;;;5072607;28;20003;-75
2021/12/26 16:18:56;;;;;;;;;;;;;;;;;;5072124;28;19934;-76
2021/12/26 16:21:23;;;;;;;;;;;;;;;;;;5071789;28;19924;-77
2021/12/26 16:23:50;;;;;;;;;;;;;;;;;;5072020;28;20389;-76
2021/12/26 16:26:17;;;;;;;;;;;;;;;;;;5067329;28;20297;-75
2021/12/26 16:28:44;;;;;;;;;;;;;;;;;;5072026;28;19947;-75
2021/12/26 16:31:11;;;;;;;;;;;;;;;;;;5071458;28;19925;-75
2021/12/26 16:33:39;;;;;;;;;;;;;;;;;;5070910;28;20278;-76
2021/12/26 16:36:06;;;;;;;;;;;;;;;;;;5072173;28;19951;-76
2021/12/26 16:38:33;;;;;;;;;;;;;;;;;;5071843;28;19924;-74
2021/12/26 16:41:02;;;;;;;;;;;;;;;;;;5071654;28;20015;-76
2021/12/26 16:43:29;;;;;;;;;;;;;;;;;;5071556;28;19978;-74
2021/12/26 16:45:56;;;;;;;;;;;;;;;;;;5067023;28;19931;-76
2021/12/26 16:48:23;;;;;;;;;;;;;;;;;;5071567;28;19931;-77
2021/12/26 16:50:50;;;;;;;;;;;;;;;;;;5071571;28;19928;-76